sensor_id;sensor_type;location;lat;lon;timestamp;temperature;humidity
74511;DHT22;62991;50.040;18.400;2023-05-10T00:02:35;13.40;47.70
74511;DHT22;62991;50.040;18.400;2023-05-10T00:05:36;13.30;47.50
74511;DHT22;62991;50.040;18.400;2023-05-10T00:08:36;13.30;47.70
74511;DHT22;62991;50.040;18.400;2023-05-10T00:11:37;13.30;47.50
74511;DHT22;62991;50.040;18.400;2023-05-10T00:14:38;13.30;47.80
74511;DHT22;62991;50.040;18.400;2023-05-10T00:17:38;13.10;47.60
74511;DHT22;62991;50.040;18.400;2023-05-10T00:20:39;13.10;47.80
74511;DHT22;62991;50.040;18.400;2023-05-10T00:23:40;13.10;47.70
74511;DHT22;62991;50.040;18.400;2023-05-10T00:26:40;13.10;47.90
74511;DHT22;62991;50.040;18.400;2023-05-10T00:29:42;13.10;47.80
74511;DHT22;62991;50.040;18.400;2023-05-10T00:32:43;13.10;47.70
74511;DHT22;62991;50.040;18.400;2023-05-10T00:35:43;13.10;47.80
74511;DHT22;62991;50.040;18.400;2023-05-10T00:38:44;13.10;47.80
74511;DHT22;62991;50.040;18.400;2023-05-10T00:41:45;13.10;47.80
74511;DHT22;62991;50.040;18.400;2023-05-10T00:44:46;13.00;47.80
74511;DHT22;62991;50.040;18.400;2023-05-10T00:47:47;12.90;48.10
74511;DHT22;62991;50.040;18.400;2023-05-10T00:50:47;12.80;48.40
74511;DHT22;62991;50.040;18.400;2023-05-10T00:53:49;12.80;48.40
74511;DHT22;62991;50.040;18.400;2023-05-10T00:56:51;12.80;48.40
74511;DHT22;62991;50.040;18.400;2023-05-10T00:59:52;12.70;48.80
74511;DHT22;62991;50.040;18.400;2023-05-10T01:02:54;12.40;49.20
74511;DHT22;62991;50.040;18.400;2023-05-10T01:05:55;12.40;49.60
74511;DHT22;62991;50.040;18.400;2023-05-10T01:08:56;12.40;49.50
74511;DHT22;62991;50.040;18.400;2023-05-10T01:11:56;12.50;49.00
74511;DHT22;62991;50.040;18.400;2023-05-10T01:14:57;12.40;48.90
74511;DHT22;62991;50.040;18.400;2023-05-10T01:17:58;11.80;49.90
74511;DHT22;62991;50.040;18.400;2023-05-10T01:21:17;11.90;50.50
74511;DHT22;62991;50.040;18.400;2023-05-10T01:30:55;12.10;49.50
74511;DHT22;62991;50.040;18.400;2023-05-10T01:34:17;12.20;49.40
74511;DHT22;62991;50.040;18.400;2023-05-10T01:37:45;12.20;49.60
74511;DHT22;62991;50.040;18.400;2023-05-10T01:41:17;12.20;49.30
74511;DHT22;62991;50.040;18.400;2023-05-10T01:47:43;12.00;49.70
74511;DHT22;62991;50.040;18.400;2023-05-10T01:50:46;11.90;49.40
74511;DHT22;62991;50.040;18.400;2023-05-10T01:53:48;11.80;50.00
74511;DHT22;62991;50.040;18.400;2023-05-10T01:56:56;11.90;49.80
74511;DHT22;62991;50.040;18.400;2023-05-10T02:00:00;11.50;50.60
74511;DHT22;62991;50.040;18.400;2023-05-10T02:03:06;11.70;50.10
74511;DHT22;62991;50.040;18.400;2023-05-10T02:06:10;11.50;50.70
74511;DHT22;62991;50.040;18.400;2023-05-10T02:09:13;11.20;51.00
74511;DHT22;62991;50.040;18.400;2023-05-10T02:12:15;11.10;51.70
74511;DHT22;62991;50.040;18.400;2023-05-10T02:15:20;11.00;51.50
74511;DHT22;62991;50.040;18.400;2023-05-10T02:18:24;11.20;51.30
74511;DHT22;62991;50.040;18.400;2023-05-10T02:21:26;11.40;50.80
74511;DHT22;62991;50.040;18.400;2023-05-10T02:24:28;11.60;50.30
74511;DHT22;62991;50.040;18.400;2023-05-10T02:27:29;11.70;50.10
74511;DHT22;62991;50.040;18.400;2023-05-10T02:30:32;11.70;50.00
74511;DHT22;62991;50.040;18.400;2023-05-10T02:33:34;11.70;49.90
74511;DHT22;62991;50.040;18.400;2023-05-10T02:36:35;11.70;49.90
74511;DHT22;62991;50.040;18.400;2023-05-10T02:39:37;11.70;49.80
74511;DHT22;62991;50.040;18.400;2023-05-10T02:42:42;11.70;49.80
74511;DHT22;62991;50.040;18.400;2023-05-10T02:45:47;11.70;49.90
74511;DHT22;62991;50.040;18.400;2023-05-10T02:48:48;11.70;49.90
74511;DHT22;62991;50.040;18.400;2023-05-10T02:51:52;11.60;49.90
74511;DHT22;62991;50.040;18.400;2023-05-10T02:54:59;11.60;50.10
74511;DHT22;62991;50.040;18.400;2023-05-10T02:58:01;11.40;50.40
74511;DHT22;62991;50.040;18.400;2023-05-10T03:01:02;11.50;50.20
74511;DHT22;62991;50.040;18.400;2023-05-10T03:04:03;11.50;50.20
74511;DHT22;62991;50.040;18.400;2023-05-10T03:07:04;11.50;50.10
74511;DHT22;62991;50.040;18.400;2023-05-10T03:10:05;11.60;50.00
74511;DHT22;62991;50.040;18.400;2023-05-10T03:16:58;11.50;50.10
74511;DHT22;62991;50.040;18.400;2023-05-10T03:20:08;11.50;50.10
74511;DHT22;62991;50.040;18.400;2023-05-10T03:23:18;11.50;50.20
74511;DHT22;62991;50.040;18.400;2023-05-10T03:26:24;11.50;50.40
74511;DHT22;62991;50.040;18.400;2023-05-10T03:29:27;11.60;50.10
74511;DHT22;62991;50.040;18.400;2023-05-10T03:32:29;11.60;50.30
74511;DHT22;62991;50.040;18.400;2023-05-10T03:35:32;11.60;50.30
74511;DHT22;62991;50.040;18.400;2023-05-10T03:38:33;11.60;50.50
74511;DHT22;62991;50.040;18.400;2023-05-10T03:41:33;11.60;50.20
74511;DHT22;62991;50.040;18.400;2023-05-10T03:44:34;11.70;50.40
74511;DHT22;62991;50.040;18.400;2023-05-10T03:47:34;11.60;50.30
74511;DHT22;62991;50.040;18.400;2023-05-10T03:50:35;11.60;50.20
74511;DHT22;62991;50.040;18.400;2023-05-10T03:53:36;11.60;50.40
74511;DHT22;62991;50.040;18.400;2023-05-10T03:56:36;11.60;50.20
74511;DHT22;62991;50.040;18.400;2023-05-10T03:59:37;11.50;50.60
74511;DHT22;62991;50.040;18.400;2023-05-10T04:02:38;11.60;50.70
74511;DHT22;62991;50.040;18.400;2023-05-10T04:05:38;11.70;50.60
74511;DHT22;62991;50.040;18.400;2023-05-10T04:08:39;11.70;50.40
74511;DHT22;62991;50.040;18.400;2023-05-10T04:11:40;11.70;50.80
74511;DHT22;62991;50.040;18.400;2023-05-10T04:14:40;11.70;50.40
74511;DHT22;62991;50.040;18.400;2023-05-10T04:17:41;11.80;50.40
74511;DHT22;62991;50.040;18.400;2023-05-10T04:20:41;11.80;50.20
74511;DHT22;62991;50.040;18.400;2023-05-10T04:23:42;11.80;50.50
74511;DHT22;62991;50.040;18.400;2023-05-10T04:26:43;11.90;50.50
74511;DHT22;62991;50.040;18.400;2023-05-10T04:29:43;11.90;50.70
74511;DHT22;62991;50.040;18.400;2023-05-10T04:32:44;12.00;50.60
74511;DHT22;62991;50.040;18.400;2023-05-10T04:35:45;11.90;50.70
74511;DHT22;62991;50.040;18.400;2023-05-10T04:38:45;12.00;50.80
74511;DHT22;62991;50.040;18.400;2023-05-10T04:41:46;12.10;50.80
74511;DHT22;62991;50.040;18.400;2023-05-10T04:44:46;12.00;51.10
74511;DHT22;62991;50.040;18.400;2023-05-10T04:47:47;12.10;50.90
74511;DHT22;62991;50.040;18.400;2023-05-10T04:50:48;12.20;50.80
74511;DHT22;62991;50.040;18.400;2023-05-10T04:53:48;12.30;50.70
74511;DHT22;62991;50.040;18.400;2023-05-10T04:56:49;12.30;51.00
74511;DHT22;62991;50.040;18.400;2023-05-10T04:59:50;12.40;50.90
74511;DHT22;62991;50.040;18.400;2023-05-10T05:02:51;12.50;50.90
74511;DHT22;62991;50.040;18.400;2023-05-10T05:05:51;12.50;51.00
74511;DHT22;62991;50.040;18.400;2023-05-10T05:08:52;12.60;50.90
74511;DHT22;62991;50.040;18.400;2023-05-10T05:11:53;12.70;51.30
74511;DHT22;62991;50.040;18.400;2023-05-10T05:14:53;12.80;50.80
74511;DHT22;62991;50.040;18.400;2023-05-10T05:17:54;12.80;50.90
74511;DHT22;62991;50.040;18.400;2023-05-10T05:20:55;12.90;50.80
74511;DHT22;62991;50.040;18.400;2023-05-10T05:23:55;13.00;50.50
74511;DHT22;62991;50.040;18.400;2023-05-10T05:26:56;13.00;50.80
74511;DHT22;62991;50.040;18.400;2023-05-10T05:29:57;13.00;51.10
74511;DHT22;62991;50.040;18.400;2023-05-10T05:32:58;13.10;50.70
74511;DHT22;62991;50.040;18.400;2023-05-10T05:36:03;13.10;50.50
74511;DHT22;62991;50.040;18.400;2023-05-10T05:39:04;13.30;50.90
74511;DHT22;62991;50.040;18.400;2023-05-10T05:42:05;13.40;50.70
74511;DHT22;62991;50.040;18.400;2023-05-10T05:45:06;13.40;50.50
74511;DHT22;62991;50.040;18.400;2023-05-10T05:48:07;13.40;51.00
74511;DHT22;62991;50.040;18.400;2023-05-10T05:51:08;13.50;51.10
74511;DHT22;62991;50.040;18.400;2023-05-10T05:54:08;13.50;50.60
74511;DHT22;62991;50.040;18.400;2023-05-10T05:57:09;13.60;51.00
74511;DHT22;62991;50.040;18.400;2023-05-10T06:00:10;13.70;50.90
74511;DHT22;62991;50.040;18.400;2023-05-10T06:03:11;13.90;49.90
74511;DHT22;62991;50.040;18.400;2023-05-10T06:06:12;13.90;50.50
74511;DHT22;62991;50.040;18.400;2023-05-10T06:09:13;14.00;49.60
74511;DHT22;62991;50.040;18.400;2023-05-10T06:12:13;14.20;52.10
74511;DHT22;62991;50.040;18.400;2023-05-10T06:15:14;14.40;53.80
74511;DHT22;62991;50.040;18.400;2023-05-10T06:18:15;14.50;52.10
74511;DHT22;62991;50.040;18.400;2023-05-10T06:21:15;14.60;51.20
74511;DHT22;62991;50.040;18.400;2023-05-10T06:24:16;14.70;52.20
74511;DHT22;62991;50.040;18.400;2023-05-10T06:27:17;14.80;52.30
74511;DHT22;62991;50.040;18.400;2023-05-10T06:30:18;14.90;50.40
74511;DHT22;62991;50.040;18.400;2023-05-10T06:33:18;15.00;51.50
74511;DHT22;62991;50.040;18.400;2023-05-10T06:36:19;14.90;50.50
74511;DHT22;62991;50.040;18.400;2023-05-10T06:39:20;14.90;51.90
74511;DHT22;62991;50.040;18.400;2023-05-10T06:42:21;15.00;51.00
74511;DHT22;62991;50.040;18.400;2023-05-10T06:45:22;14.90;50.70
74511;DHT22;62991;50.040;18.400;2023-05-10T06:48:22;14.90;51.00
74511;DHT22;62991;50.040;18.400;2023-05-10T06:51:23;15.00;51.80
74511;DHT22;62991;50.040;18.400;2023-05-10T06:54:24;15.00;49.80
74511;DHT22;62991;50.040;18.400;2023-05-10T06:57:24;15.00;51.40
74511;DHT22;62991;50.040;18.400;2023-05-10T07:00:25;15.10;50.30
74511;DHT22;62991;50.040;18.400;2023-05-10T07:03:26;15.10;51.20
74511;DHT22;62991;50.040;18.400;2023-05-10T07:06:27;15.20;49.70
74511;DHT22;62991;50.040;18.400;2023-05-10T07:09:27;15.20;49.10
74511;DHT22;62991;50.040;18.400;2023-05-10T07:12:28;15.20;50.50
74511;DHT22;62991;50.040;18.400;2023-05-10T07:15:29;15.20;50.50
74511;DHT22;62991;50.040;18.400;2023-05-10T07:18:30;15.30;49.60
74511;DHT22;62991;50.040;18.400;2023-05-10T07:21:30;15.40;50.50
74511;DHT22;62991;50.040;18.400;2023-05-10T07:24:32;15.50;50.40
74511;DHT22;62991;50.040;18.400;2023-05-10T07:27:33;15.50;50.30
74511;DHT22;62991;50.040;18.400;2023-05-10T07:30:34;15.60;48.00
74511;DHT22;62991;50.040;18.400;2023-05-10T07:33:34;15.60;48.30
74511;DHT22;62991;50.040;18.400;2023-05-10T07:36:35;15.60;47.50
74511;DHT22;62991;50.040;18.400;2023-05-10T07:39:36;15.60;47.70
74511;DHT22;62991;50.040;18.400;2023-05-10T07:42:37;15.60;47.40
74511;DHT22;62991;50.040;18.400;2023-05-10T07:45:38;15.60;47.30
74511;DHT22;62991;50.040;18.400;2023-05-10T07:48:39;15.70;47.30
74511;DHT22;62991;50.040;18.400;2023-05-10T07:51:39;15.80;48.50
74511;DHT22;62991;50.040;18.400;2023-05-10T07:54:40;15.90;47.70
74511;DHT22;62991;50.040;18.400;2023-05-10T07:57:42;16.00;48.30
74511;DHT22;62991;50.040;18.400;2023-05-10T08:00:42;16.20;48.10
74511;DHT22;62991;50.040;18.400;2023-05-10T08:03:43;16.30;47.40
74511;DHT22;62991;50.040;18.400;2023-05-10T08:06:43;16.30;46.40
74511;DHT22;62991;50.040;18.400;2023-05-10T08:09:44;16.30;46.60
74511;DHT22;62991;50.040;18.400;2023-05-10T08:12:45;16.50;47.20
74511;DHT22;62991;50.040;18.400;2023-05-10T08:15:45;16.70;47.70
74511;DHT22;62991;50.040;18.400;2023-05-10T08:18:47;16.80;46.10
74511;DHT22;62991;50.040;18.400;2023-05-10T08:21:49;16.80;45.90
74511;DHT22;62991;50.040;18.400;2023-05-10T08:24:50;16.90;46.20
74511;DHT22;62991;50.040;18.400;2023-05-10T08:27:50;16.90;45.60
74511;DHT22;62991;50.040;18.400;2023-05-10T08:30:51;17.10;45.30
74511;DHT22;62991;50.040;18.400;2023-05-10T08:33:52;17.30;44.90
74511;DHT22;62991;50.040;18.400;2023-05-10T08:36:53;17.40;44.90
74511;DHT22;62991;50.040;18.400;2023-05-10T08:39:54;17.50;43.00
74511;DHT22;62991;50.040;18.400;2023-05-10T08:43:15;17.40;45.60
74511;DHT22;62991;50.040;18.400;2023-05-10T08:46:18;17.60;44.30
74511;DHT22;62991;50.040;18.400;2023-05-10T08:49:20;17.70;42.60
74511;DHT22;62991;50.040;18.400;2023-05-10T08:52:21;17.70;42.80
74511;DHT22;62991;50.040;18.400;2023-05-10T08:55:23;17.90;44.20
74511;DHT22;62991;50.040;18.400;2023-05-10T08:58:25;18.00;43.40
74511;DHT22;62991;50.040;18.400;2023-05-10T09:01:26;18.20;42.90
74511;DHT22;62991;50.040;18.400;2023-05-10T09:04:29;18.30;41.80
74511;DHT22;62991;50.040;18.400;2023-05-10T09:07:30;18.20;42.90
74511;DHT22;62991;50.040;18.400;2023-05-10T09:10:31;18.40;42.40
74511;DHT22;62991;50.040;18.400;2023-05-10T09:13:32;18.50;41.70
74511;DHT22;62991;50.040;18.400;2023-05-10T09:16:33;18.60;42.00
74511;DHT22;62991;50.040;18.400;2023-05-10T09:19:33;18.70;41.30
74511;DHT22;62991;50.040;18.400;2023-05-10T09:22:34;18.90;43.10
74511;DHT22;62991;50.040;18.400;2023-05-10T09:25:35;19.10;42.40
74511;DHT22;62991;50.040;18.400;2023-05-10T09:28:57;19.10;39.80
74511;DHT22;62991;50.040;18.400;2023-05-10T09:31:58;19.20;41.50
74511;DHT22;62991;50.040;18.400;2023-05-10T09:35:09;19.20;41.60
74511;DHT22;62991;50.040;18.400;2023-05-10T09:38:10;19.60;41.70
74511;DHT22;62991;50.040;18.400;2023-05-10T09:41:21;19.90;42.00
74511;DHT22;62991;50.040;18.400;2023-05-10T09:44:22;20.00;40.10
74511;DHT22;62991;50.040;18.400;2023-05-10T09:47:23;19.80;39.40
74511;DHT22;62991;50.040;18.400;2023-05-10T09:50:25;19.70;38.90
74511;DHT22;62991;50.040;18.400;2023-05-10T09:53:26;19.50;40.50
74511;DHT22;62991;50.040;18.400;2023-05-10T09:56:34;19.50;40.40
74511;DHT22;62991;50.040;18.400;2023-05-10T09:59:36;19.60;41.30
74511;DHT22;62991;50.040;18.400;2023-05-10T10:02:42;20.00;41.70
74511;DHT22;62991;50.040;18.400;2023-05-10T10:05:44;20.40;42.80
74511;DHT22;62991;50.040;18.400;2023-05-10T10:08:45;20.50;39.80
74511;DHT22;62991;50.040;18.400;2023-05-10T10:11:46;20.60;40.00
74511;DHT22;62991;50.040;18.400;2023-05-10T10:14:47;20.40;37.90
74511;DHT22;62991;50.040;18.400;2023-05-10T10:17:50;20.30;38.50
74511;DHT22;62991;50.040;18.400;2023-05-10T10:20:52;20.50;37.50
74511;DHT22;62991;50.040;18.400;2023-05-10T10:23:53;20.50;38.00
74511;DHT22;62991;50.040;18.400;2023-05-10T10:26:57;20.80;38.70
74511;DHT22;62991;50.040;18.400;2023-05-10T10:30:10;21.00;36.50
74511;DHT22;62991;50.040;18.400;2023-05-10T10:36:44;20.90;37.20
74511;DHT22;62991;50.040;18.400;2023-05-10T10:39:48;20.60;36.60
74511;DHT22;62991;50.040;18.400;2023-05-10T10:42:49;20.50;38.20
74511;DHT22;62991;50.040;18.400;2023-05-10T10:46:16;20.70;37.60
74511;DHT22;62991;50.040;18.400;2023-05-10T10:49:17;20.80;39.30
74511;DHT22;62991;50.040;18.400;2023-05-10T10:52:22;21.10;38.20
74511;DHT22;62991;50.040;18.400;2023-05-10T10:55:24;21.20;38.50
74511;DHT22;62991;50.040;18.400;2023-05-10T10:58:30;21.20;37.00
74511;DHT22;62991;50.040;18.400;2023-05-10T11:01:34;21.30;37.00
74511;DHT22;62991;50.040;18.400;2023-05-10T11:04:42;21.20;38.00
74511;DHT22;62991;50.040;18.400;2023-05-10T11:07:54;21.30;38.40
74511;DHT22;62991;50.040;18.400;2023-05-10T11:11:02;21.60;39.30
74511;DHT22;62991;50.040;18.400;2023-05-10T11:14:05;21.80;39.90
74511;DHT22;62991;50.040;18.400;2023-05-10T11:17:27;21.90;39.20
74511;DHT22;62991;50.040;18.400;2023-05-10T11:20:38;22.00;39.00
74511;DHT22;62991;50.040;18.400;2023-05-10T11:26:40;22.00;39.20
74511;DHT22;62991;50.040;18.400;2023-05-10T11:29:43;22.00;38.50
74511;DHT22;62991;50.040;18.400;2023-05-10T11:32:44;22.10;39.00
74511;DHT22;62991;50.040;18.400;2023-05-10T11:35:45;22.30;39.00
74511;DHT22;62991;50.040;18.400;2023-05-10T11:38:47;22.40;39.70
74511;DHT22;62991;50.040;18.400;2023-05-10T11:41:49;22.40;40.30
74511;DHT22;62991;50.040;18.400;2023-05-10T11:44:50;22.20;39.40
74511;DHT22;62991;50.040;18.400;2023-05-10T11:47:51;22.30;38.80
74511;DHT22;62991;50.040;18.400;2023-05-10T11:50:51;22.30;38.70
74511;DHT22;62991;50.040;18.400;2023-05-10T11:53:56;22.40;38.60
74511;DHT22;62991;50.040;18.400;2023-05-10T11:56:57;22.30;38.70
74511;DHT22;62991;50.040;18.400;2023-05-10T11:59:57;22.20;38.40
74511;DHT22;62991;50.040;18.400;2023-05-10T12:02:59;22.10;38.70
74511;DHT22;62991;50.040;18.400;2023-05-10T12:06:01;22.40;38.90
74511;DHT22;62991;50.040;18.400;2023-05-10T12:09:06;22.60;38.80
74511;DHT22;62991;50.040;18.400;2023-05-10T12:12:07;22.90;39.30
74511;DHT22;62991;50.040;18.400;2023-05-10T12:15:21;23.00;37.70
74511;DHT22;62991;50.040;18.400;2023-05-10T12:18:23;23.00;38.10
74511;DHT22;62991;50.040;18.400;2023-05-10T12:21:28;22.90;37.90
74511;DHT22;62991;50.040;18.400;2023-05-10T12:24:34;23.00;37.30
74511;DHT22;62991;50.040;18.400;2023-05-10T12:27:35;23.20;36.80
74511;DHT22;62991;50.040;18.400;2023-05-10T12:30:36;23.30;36.70
74511;DHT22;62991;50.040;18.400;2023-05-10T12:33:42;23.60;36.70
74511;DHT22;62991;50.040;18.400;2023-05-10T12:36:43;23.90;36.80
74511;DHT22;62991;50.040;18.400;2023-05-10T12:39:44;24.20;36.60
74511;DHT22;62991;50.040;18.400;2023-05-10T12:42:46;24.20;36.70
74511;DHT22;62991;50.040;18.400;2023-05-10T12:45:47;24.30;36.30
74511;DHT22;62991;50.040;18.400;2023-05-10T12:48:49;24.60;36.30
74511;DHT22;62991;50.040;18.400;2023-05-10T12:51:55;24.70;36.20
74511;DHT22;62991;50.040;18.400;2023-05-10T12:54:55;24.70;36.40
74511;DHT22;62991;50.040;18.400;2023-05-10T12:57:56;24.50;34.20
74511;DHT22;62991;50.040;18.400;2023-05-10T13:00:58;24.20;36.90
74511;DHT22;62991;50.040;18.400;2023-05-10T13:03:59;24.20;35.60
74511;DHT22;62991;50.040;18.400;2023-05-10T13:07:01;24.30;35.90
74511;DHT22;62991;50.040;18.400;2023-05-10T13:10:02;24.60;35.60
74511;DHT22;62991;50.040;18.400;2023-05-10T13:13:03;25.00;36.50
74511;DHT22;62991;50.040;18.400;2023-05-10T13:16:04;25.40;35.60
74511;DHT22;62991;50.040;18.400;2023-05-10T13:19:04;25.40;35.20
74511;DHT22;62991;50.040;18.400;2023-05-10T13:22:05;25.40;35.80
74511;DHT22;62991;50.040;18.400;2023-05-10T13:25:06;25.30;35.10
74511;DHT22;62991;50.040;18.400;2023-05-10T13:28:07;25.20;33.60
74511;DHT22;62991;50.040;18.400;2023-05-10T13:31:07;25.10;33.70
74511;DHT22;62991;50.040;18.400;2023-05-10T13:34:08;25.30;34.20
74511;DHT22;62991;50.040;18.400;2023-05-10T13:37:09;25.50;34.00
74511;DHT22;62991;50.040;18.400;2023-05-10T13:40:10;25.50;32.30
74511;DHT22;62991;50.040;18.400;2023-05-10T13:43:11;25.50;35.50
74511;DHT22;62991;50.040;18.400;2023-05-10T13:46:11;25.90;35.50
74511;DHT22;62991;50.040;18.400;2023-05-10T13:49:12;26.10;34.10
74511;DHT22;62991;50.040;18.400;2023-05-10T13:52:13;26.20;33.90
74511;DHT22;62991;50.040;18.400;2023-05-10T13:55:14;25.90;33.90
74511;DHT22;62991;50.040;18.400;2023-05-10T13:58:14;25.90;33.30
74511;DHT22;62991;50.040;18.400;2023-05-10T14:01:15;26.30;33.10
74511;DHT22;62991;50.040;18.400;2023-05-10T14:04:16;26.20;32.80
74511;DHT22;62991;50.040;18.400;2023-05-10T14:07:17;26.00;33.10
74511;DHT22;62991;50.040;18.400;2023-05-10T14:10:18;26.00;32.60
74511;DHT22;62991;50.040;18.400;2023-05-10T14:13:19;25.90;33.00
74511;DHT22;62991;50.040;18.400;2023-05-10T14:16:19;25.70;33.60
74511;DHT22;62991;50.040;18.400;2023-05-10T14:19:20;25.60;33.70
74511;DHT22;62991;50.040;18.400;2023-05-10T14:22:21;25.50;32.80
74511;DHT22;62991;50.040;18.400;2023-05-10T14:25:23;25.10;32.50
74511;DHT22;62991;50.040;18.400;2023-05-10T14:28:23;24.70;33.40
74511;DHT22;62991;50.040;18.400;2023-05-10T14:31:25;24.80;33.40
74511;DHT22;62991;50.040;18.400;2023-05-10T14:34:26;24.80;34.00
74511;DHT22;62991;50.040;18.400;2023-05-10T14:37:26;26.20;33.60
74511;DHT22;62991;50.040;18.400;2023-05-10T14:40:27;28.10;32.70
74511;DHT22;62991;50.040;18.400;2023-05-10T14:43:29;28.10;30.50
74511;DHT22;62991;50.040;18.400;2023-05-10T14:46:30;27.50;31.10
74511;DHT22;62991;50.040;18.400;2023-05-10T14:49:31;27.00;31.60
74511;DHT22;62991;50.040;18.400;2023-05-10T14:52:31;26.50;32.40
74511;DHT22;62991;50.040;18.400;2023-05-10T14:55:32;26.10;32.40
74511;DHT22;62991;50.040;18.400;2023-05-10T14:58:35;25.80;32.90
74511;DHT22;62991;50.040;18.400;2023-05-10T15:01:35;25.40;32.90
74511;DHT22;62991;50.040;18.400;2023-05-10T15:04:38;25.10;33.10
74511;DHT22;62991;50.040;18.400;2023-05-10T15:07:38;25.00;33.80
74511;DHT22;62991;50.040;18.400;2023-05-10T15:10:39;24.40;33.20
74511;DHT22;62991;50.040;18.400;2023-05-10T15:13:40;24.30;34.80
74511;DHT22;62991;50.040;18.400;2023-05-10T15:16:41;23.90;34.90
74511;DHT22;62991;50.040;18.400;2023-05-10T15:19:42;23.80;36.00
74511;DHT22;62991;50.040;18.400;2023-05-10T15:22:43;23.90;35.60
74511;DHT22;62991;50.040;18.400;2023-05-10T15:25:44;23.80;35.60
74511;DHT22;62991;50.040;18.400;2023-05-10T15:28:44;23.80;35.50
74511;DHT22;62991;50.040;18.400;2023-05-10T15:31:47;23.70;35.70
74511;DHT22;62991;50.040;18.400;2023-05-10T15:34:48;23.70;35.40
74511;DHT22;62991;50.040;18.400;2023-05-10T15:37:48;23.70;35.50
74511;DHT22;62991;50.040;18.400;2023-05-10T15:40:56;23.60;36.10
74511;DHT22;62991;50.040;18.400;2023-05-10T15:43:58;23.50;35.60
74511;DHT22;62991;50.040;18.400;2023-05-10T15:47:01;23.50;35.80
74511;DHT22;62991;50.040;18.400;2023-05-10T15:50:06;23.60;36.00
74511;DHT22;62991;50.040;18.400;2023-05-10T15:53:07;23.50;36.00
74511;DHT22;62991;50.040;18.400;2023-05-10T15:56:08;23.60;35.80
74511;DHT22;62991;50.040;18.400;2023-05-10T15:59:09;23.60;36.00
74511;DHT22;62991;50.040;18.400;2023-05-10T16:02:11;23.60;36.00
74511;DHT22;62991;50.040;18.400;2023-05-10T16:05:12;23.60;36.10
74511;DHT22;62991;50.040;18.400;2023-05-10T16:08:13;23.50;35.90
74511;DHT22;62991;50.040;18.400;2023-05-10T16:11:14;23.40;36.10
74511;DHT22;62991;50.040;18.400;2023-05-10T16:14:14;23.30;36.30
74511;DHT22;62991;50.040;18.400;2023-05-10T16:17:16;23.40;36.10
74511;DHT22;62991;50.040;18.400;2023-05-10T16:20:17;23.40;36.10
74511;DHT22;62991;50.040;18.400;2023-05-10T16:23:18;23.60;35.90
74511;DHT22;62991;50.040;18.400;2023-05-10T16:26:18;23.70;35.90
74511;DHT22;62991;50.040;18.400;2023-05-10T16:29:19;23.70;36.20
74511;DHT22;62991;50.040;18.400;2023-05-10T16:32:20;23.60;36.30
74511;DHT22;62991;50.040;18.400;2023-05-10T16:35:20;23.50;35.60
74511;DHT22;62991;50.040;18.400;2023-05-10T16:38:22;23.30;36.30
74511;DHT22;62991;50.040;18.400;2023-05-10T16:41:23;23.10;36.30
74511;DHT22;62991;50.040;18.400;2023-05-10T16:44:24;23.30;35.50
74511;DHT22;62991;50.040;18.400;2023-05-10T16:47:24;23.30;35.30
74511;DHT22;62991;50.040;18.400;2023-05-10T16:50:26;23.40;35.60
74511;DHT22;62991;50.040;18.400;2023-05-10T16:53:27;23.50;35.10
74511;DHT22;62991;50.040;18.400;2023-05-10T16:56:28;23.20;35.40
74511;DHT22;62991;50.040;18.400;2023-05-10T16:59:29;23.30;35.80
74511;DHT22;62991;50.040;18.400;2023-05-10T17:02:29;23.30;36.00
74511;DHT22;62991;50.040;18.400;2023-05-10T17:05:30;23.00;34.90
74511;DHT22;62991;50.040;18.400;2023-05-10T17:08:31;22.90;35.60
74511;DHT22;62991;50.040;18.400;2023-05-10T17:11:32;23.20;35.10
74511;DHT22;62991;50.040;18.400;2023-05-10T17:14:33;23.40;34.90
74511;DHT22;62991;50.040;18.400;2023-05-10T17:17:34;23.60;35.00
74511;DHT22;62991;50.040;18.400;2023-05-10T17:20:34;23.60;34.90
74511;DHT22;62991;50.040;18.400;2023-05-10T17:23:35;23.60;35.10
74511;DHT22;62991;50.040;18.400;2023-05-10T17:26:38;23.70;35.40
74511;DHT22;62991;50.040;18.400;2023-05-10T17:29:48;23.60;35.10
74511;DHT22;62991;50.040;18.400;2023-05-10T17:32:49;23.50;35.80
74511;DHT22;62991;50.040;18.400;2023-05-10T17:35:50;23.50;36.20
74511;DHT22;62991;50.040;18.400;2023-05-10T17:38:51;23.40;36.10
74511;DHT22;62991;50.040;18.400;2023-05-10T17:41:51;23.40;35.10
74511;DHT22;62991;50.040;18.400;2023-05-10T17:44:52;23.30;35.60
74511;DHT22;62991;50.040;18.400;2023-05-10T17:47:53;23.10;35.70
74511;DHT22;62991;50.040;18.400;2023-05-10T17:50:55;22.90;36.10
74511;DHT22;62991;50.040;18.400;2023-05-10T17:53:55;22.70;36.30
74511;DHT22;62991;50.040;18.400;2023-05-10T17:56:56;22.50;36.50
74511;DHT22;62991;50.040;18.400;2023-05-10T17:59:57;22.30;36.90
74511;DHT22;62991;50.040;18.400;2023-05-10T18:02:58;22.10;36.60
74511;DHT22;62991;50.040;18.400;2023-05-10T18:05:58;21.70;37.20
74511;DHT22;62991;50.040;18.400;2023-05-10T18:08:59;21.40;38.00
74511;DHT22;62991;50.040;18.400;2023-05-10T18:12:03;21.30;38.00
74511;DHT22;62991;50.040;18.400;2023-05-10T18:15:04;21.20;38.20
74511;DHT22;62991;50.040;18.400;2023-05-10T18:18:05;21.10;38.30
74511;DHT22;62991;50.040;18.400;2023-05-10T18:21:06;21.00;38.30
74511;DHT22;62991;50.040;18.400;2023-05-10T18:24:07;20.90;38.50
74511;DHT22;62991;50.040;18.400;2023-05-10T18:27:08;20.80;39.10
74511;DHT22;62991;50.040;18.400;2023-05-10T18:30:09;20.80;38.40
74511;DHT22;62991;50.040;18.400;2023-05-10T18:33:11;20.70;38.70
74511;DHT22;62991;50.040;18.400;2023-05-10T18:36:12;20.60;38.60
74511;DHT22;62991;50.040;18.400;2023-05-10T18:39:13;20.60;38.60
74511;DHT22;62991;50.040;18.400;2023-05-10T18:42:14;20.50;38.50
74511;DHT22;62991;50.040;18.400;2023-05-10T18:45:15;20.40;38.90
74511;DHT22;62991;50.040;18.400;2023-05-10T18:48:16;20.30;39.10
74511;DHT22;62991;50.040;18.400;2023-05-10T18:51:17;20.20;38.90
74511;DHT22;62991;50.040;18.400;2023-05-10T18:54:18;20.20;39.30
74511;DHT22;62991;50.040;18.400;2023-05-10T18:57:19;20.00;39.10
74511;DHT22;62991;50.040;18.400;2023-05-10T19:00:21;20.00;39.10
74511;DHT22;62991;50.040;18.400;2023-05-10T19:03:22;20.00;39.00
74511;DHT22;62991;50.040;18.400;2023-05-10T19:06:22;20.00;38.50
74511;DHT22;62991;50.040;18.400;2023-05-10T19:09:25;20.00;39.00
74511;DHT22;62991;50.040;18.400;2023-05-10T19:12:26;19.90;38.90